sensor_id;sensor_type;location;lat;lon;timestamp;temperature;humidity
8400;DHT22;4237;47.030;15.396;2024-01-06T00:01:03;4.70;99.90
8400;DHT22;4237;47.030;15.396;2024-01-06T00:03:32;4.80;99.90
8400;DHT22;4237;47.030;15.396;2024-01-06T00:06:00;4.80;99.90
8400;DHT22;4237;47.030;15.396;2024-01-06T00:08:29;4.80;99.90
8400;DHT22;4237;47.030;15.396;2024-01-06T00:10:58;4.90;99.90
8400;DHT22;4237;47.030;15.396;2024-01-06T00:13:28;4.90;99.90
8400;DHT22;4237;47.030;15.396;2024-01-06T00:15:57;4.90;99.90
8400;DHT22;4237;47.030;15.396;2024-01-06T00:18:26;4.90;99.90
8400;DHT22;4237;47.030;15.396;2024-01-06T00:20:54;4.80;99.90
8400;DHT22;4237;47.030;15.396;2024-01-06T00:23:23;4.90;99.90
8400;DHT22;4237;47.030;15.396;2024-01-06T00:25:52;4.90;99.90
8400;DHT22;4237;47.030;15.396;2024-01-06T00:28:20;5.00;99.90
8400;DHT22;4237;47.030;15.396;2024-01-06T00:30:49;5.00;99.90
8400;DHT22;4237;47.030;15.396;2024-01-06T00:33:17;5.00;99.90
8400;DHT22;4237;47.030;15.396;2024-01-06T00:35:46;5.00;99.90
8400;DHT22;4237;47.030;15.396;2024-01-06T00:38:15;5.10;99.90
8400;DHT22;4237;47.030;15.396;2024-01-06T00:40:43;5.10;99.90
8400;DHT22;4237;47.030;15.396;2024-01-06T00:43:12;5.90;99.90
8400;DHT22;4237;47.030;15.396;2024-01-06T00:45:41;5.20;99.90
8400;DHT22;4237;47.030;15.396;2024-01-06T00:48:09;5.20;99.90
8400;DHT22;4237;47.030;15.396;2024-01-06T00:50:38;5.20;99.90
8400;DHT22;4237;47.030;15.396;2024-01-06T00:53:06;5.20;99.90
8400;DHT22;4237;47.030;15.396;2024-01-06T00:55:35;5.10;99.90
8400;DHT22;4237;47.030;15.396;2024-01-06T00:58:03;5.20;99.90
8400;DHT22;4237;47.030;15.396;2024-01-06T01:00:32;5.20;99.90
8400;DHT22;4237;47.030;15.396;2024-01-06T01:03:00;5.20;99.90
8400;DHT22;4237;47.030;15.396;2024-01-06T01:05:29;5.20;99.90
8400;DHT22;4237;47.030;15.396;2024-01-06T01:07:58;4.30;99.90
8400;DHT22;4237;47.030;15.396;2024-01-06T01:10:26;5.20;99.90
8400;DHT22;4237;47.030;15.396;2024-01-06T01:12:55;5.10;99.90
8400;DHT22;4237;47.030;15.396;2024-01-06T01:15:23;5.10;99.90
8400;DHT22;4237;47.030;15.396;2024-01-06T01:17:52;5.10;99.90
8400;DHT22;4237;47.030;15.396;2024-01-06T01:20:21;5.20;99.90
8400;DHT22;4237;47.030;15.396;2024-01-06T01:22:49;5.20;99.90
8400;DHT22;4237;47.030;15.396;2024-01-06T01:25:18;5.20;99.90
8400;DHT22;4237;47.030;15.396;2024-01-06T01:27:46;5.20;99.90
8400;DHT22;4237;47.030;15.396;2024-01-06T01:30:15;5.20;99.90
8400;DHT22;4237;47.030;15.396;2024-01-06T01:32:44;5.10;99.90
8400;DHT22;4237;47.030;15.396;2024-01-06T01:35:12;5.00;99.90
8400;DHT22;4237;47.030;15.396;2024-01-06T01:37:41;5.10;99.90
8400;DHT22;4237;47.030;15.396;2024-01-06T01:40:10;5.20;99.90
8400;DHT22;4237;47.030;15.396;2024-01-06T01:42:38;5.20;99.90
8400;DHT22;4237;47.030;15.396;2024-01-06T01:45:07;5.10;99.90
8400;DHT22;4237;47.030;15.396;2024-01-06T01:47:36;5.20;99.90
8400;DHT22;4237;47.030;15.396;2024-01-06T01:50:07;5.20;99.90
8400;DHT22;4237;47.030;15.396;2024-01-06T01:52:37;5.20;99.90
8400;DHT22;4237;47.030;15.396;2024-01-06T01:55:06;5.30;99.90
8400;DHT22;4237;47.030;15.396;2024-01-06T01:57:35;5.40;99.90
8400;DHT22;4237;47.030;15.396;2024-01-06T02:00:04;5.30;99.90
8400;DHT22;4237;47.030;15.396;2024-01-06T02:02:33;5.30;99.90
8400;DHT22;4237;47.030;15.396;2024-01-06T02:05:01;5.30;99.90
8400;DHT22;4237;47.030;15.396;2024-01-06T02:07:30;5.30;99.90
8400;DHT22;4237;47.030;15.396;2024-01-06T02:09:59;5.40;99.90
8400;DHT22;4237;47.030;15.396;2024-01-06T02:12:27;5.40;99.90
8400;DHT22;4237;47.030;15.396;2024-01-06T02:14:56;5.20;99.90
8400;DHT22;4237;47.030;15.396;2024-01-06T02:17:24;5.20;99.90
8400;DHT22;4237;47.030;15.396;2024-01-06T02:19:53;5.20;99.90
8400;DHT22;4237;47.030;15.396;2024-01-06T02:22:22;5.20;99.90
8400;DHT22;4237;47.030;15.396;2024-01-06T02:24:50;5.20;99.90
8400;DHT22;4237;47.030;15.396;2024-01-06T02:27:19;5.20;99.90
8400;DHT22;4237;47.030;15.396;2024-01-06T02:29:47;5.20;99.90
8400;DHT22;4237;47.030;15.396;2024-01-06T02:32:16;5.20;99.90
8400;DHT22;4237;47.030;15.396;2024-01-06T02:34:45;5.10;99.90
8400;DHT22;4237;47.030;15.396;2024-01-06T02:37:13;5.10;99.90
8400;DHT22;4237;47.030;15.396;2024-01-06T02:39:42;5.10;99.90
8400;DHT22;4237;47.030;15.396;2024-01-06T02:42:11;5.10;99.90
8400;DHT22;4237;47.030;15.396;2024-01-06T02:44:39;5.80;99.90
8400;DHT22;4237;47.030;15.396;2024-01-06T02:47:08;5.60;99.90
8400;DHT22;4237;47.030;15.396;2024-01-06T02:49:36;5.00;99.90
8400;DHT22;4237;47.030;15.396;2024-01-06T02:52:05;5.00;99.90
8400;DHT22;4237;47.030;15.396;2024-01-06T02:54:34;5.00;99.90
8400;DHT22;4237;47.030;15.396;2024-01-06T02:57:02;5.00;99.90
8400;DHT22;4237;47.030;15.396;2024-01-06T02:59:31;5.00;99.90
8400;DHT22;4237;47.030;15.396;2024-01-06T03:02:02;5.00;99.90
8400;DHT22;4237;47.030;15.396;2024-01-06T03:04:30;5.00;99.90
8400;DHT22;4237;47.030;15.396;2024-01-06T03:06:59;5.00;99.90
8400;DHT22;4237;47.030;15.396;2024-01-06T03:09:28;5.00;99.90
8400;DHT22;4237;47.030;15.396;2024-01-06T03:11:56;5.00;99.90
8400;DHT22;4237;47.030;15.396;2024-01-06T03:14:25;5.10;99.90
8400;DHT22;4237;47.030;15.396;2024-01-06T03:16:53;5.00;99.90
8400;DHT22;4237;47.030;15.396;2024-01-06T03:19:22;5.00;99.90
8400;DHT22;4237;47.030;15.396;2024-01-06T03:21:52;5.00;99.90
8400;DHT22;4237;47.030;15.396;2024-01-06T03:24:22;5.00;99.90
8400;DHT22;4237;47.030;15.396;2024-01-06T03:26:51;5.10;99.90
8400;DHT22;4237;47.030;15.396;2024-01-06T03:29:20;5.10;99.90
8400;DHT22;4237;47.030;15.396;2024-01-06T03:31:48;5.20;99.90
8400;DHT22;4237;47.030;15.396;2024-01-06T03:34:17;5.10;99.90
8400;DHT22;4237;47.030;15.396;2024-01-06T03:36:45;5.10;99.90
8400;DHT22;4237;47.030;15.396;2024-01-06T03:39:14;5.20;99.90
8400;DHT22;4237;47.030;15.396;2024-01-06T03:41:42;5.20;99.90
8400;DHT22;4237;47.030;15.396;2024-01-06T03:44:11;5.20;99.90
8400;DHT22;4237;47.030;15.396;2024-01-06T03:46:39;5.20;99.90
8400;DHT22;4237;47.030;15.396;2024-01-06T03:49:08;5.80;99.90
8400;DHT22;4237;47.030;15.396;2024-01-06T03:51:36;5.30;99.90
8400;DHT22;4237;47.030;15.396;2024-01-06T03:54:05;5.20;99.90
8400;DHT22;4237;47.030;15.396;2024-01-06T03:56:34;5.40;99.90
8400;DHT22;4237;47.030;15.396;2024-01-06T03:59:02;5.40;99.90
8400;DHT22;4237;47.030;15.396;2024-01-06T04:01:31;5.40;99.90
8400;DHT22;4237;47.030;15.396;2024-01-06T04:04:02;5.30;99.90
8400;DHT22;4237;47.030;15.396;2024-01-06T04:06:31;5.30;99.90
8400;DHT22;4237;47.030;15.396;2024-01-06T04:09:00;5.30;99.90
8400;DHT22;4237;47.030;15.396;2024-01-06T04:11:29;5.30;99.90
8400;DHT22;4237;47.030;15.396;2024-01-06T04:13:58;4.70;99.90
8400;DHT22;4237;47.030;15.396;2024-01-06T04:16:27;5.30;99.90
8400;DHT22;4237;47.030;15.396;2024-01-06T04:18:55;5.30;99.90
8400;DHT22;4237;47.030;15.396;2024-01-06T04:21:24;5.30;99.90
8400;DHT22;4237;47.030;15.396;2024-01-06T04:23:52;5.40;99.90
8400;DHT22;4237;47.030;15.396;2024-01-06T04:26:23;5.40;99.90
8400;DHT22;4237;47.030;15.396;2024-01-06T04:28:52;5.40;99.90
8400;DHT22;4237;47.030;15.396;2024-01-06T04:31:20;5.40;99.90
8400;DHT22;4237;47.030;15.396;2024-01-06T04:33:49;5.40;99.90
8400;DHT22;4237;47.030;15.396;2024-01-06T04:36:17;5.30;99.90
8400;DHT22;4237;47.030;15.396;2024-01-06T04:38:46;5.30;99.90
8400;DHT22;4237;47.030;15.396;2024-01-06T04:41:15;5.30;99.90
8400;DHT22;4237;47.030;15.396;2024-01-06T04:43:43;5.30;99.90
8400;DHT22;4237;47.030;15.396;2024-01-06T04:46:12;5.30;99.90
8400;DHT22;4237;47.030;15.396;2024-01-06T04:48:43;5.30;99.90
8400;DHT22;4237;47.030;15.396;2024-01-06T04:51:12;5.30;99.90
8400;DHT22;4237;47.030;15.396;2024-01-06T04:53:41;5.40;99.90
8400;DHT22;4237;47.030;15.396;2024-01-06T04:56:09;5.40;99.90
8400;DHT22;4237;47.030;15.396;2024-01-06T04:58:38;5.40;99.90
8400;DHT22;4237;47.030;15.396;2024-01-06T05:01:07;5.40;99.90
8400;DHT22;4237;47.030;15.396;2024-01-06T05:03:36;5.50;99.90
8400;DHT22;4237;47.030;15.396;2024-01-06T05:06:04;5.40;99.90
8400;DHT22;4237;47.030;15.396;2024-01-06T05:08:33;5.40;99.90
8400;DHT22;4237;47.030;15.396;2024-01-06T05:11:03;5.40;99.90
8400;DHT22;4237;47.030;15.396;2024-01-06T05:13:32;5.50;99.90
8400;DHT22;4237;47.030;15.396;2024-01-06T05:16:00;5.40;99.90
8400;DHT22;4237;47.030;15.396;2024-01-06T05:18:29;5.40;99.90
8400;DHT22;4237;47.030;15.396;2024-01-06T05:20:58;5.40;99.90
8400;DHT22;4237;47.030;15.396;2024-01-06T05:23:26;5.40;99.90
8400;DHT22;4237;47.030;15.396;2024-01-06T05:25:55;5.40;99.90
8400;DHT22;4237;47.030;15.396;2024-01-06T05:28:23;5.50;99.90
8400;DHT22;4237;47.030;15.396;2024-01-06T05:30:52;5.50;99.90
8400;DHT22;4237;47.030;15.396;2024-01-06T05:33:20;5.40;99.90
8400;DHT22;4237;47.030;15.396;2024-01-06T05:35:49;5.40;99.90
8400;DHT22;4237;47.030;15.396;2024-01-06T05:38:17;5.40;99.90
8400;DHT22;4237;47.030;15.396;2024-01-06T05:40:46;5.40;99.90
8400;DHT22;4237;47.030;15.396;2024-01-06T05:43:15;5.30;99.90
8400;DHT22;4237;47.030;15.396;2024-01-06T05:45:44;5.30;99.90
8400;DHT22;4237;47.030;15.396;2024-01-06T05:48:13;5.30;99.90
8400;DHT22;4237;47.030;15.396;2024-01-06T05:50:41;5.20;99.90
8400;DHT22;4237;47.030;15.396;2024-01-06T05:53:10;5.20;99.90
8400;DHT22;4237;47.030;15.396;2024-01-06T05:55:38;5.30;99.90
8400;DHT22;4237;47.030;15.396;2024-01-06T05:58:07;5.20;99.90
8400;DHT22;4237;47.030;15.396;2024-01-06T06:00:36;5.20;99.90
8400;DHT22;4237;47.030;15.396;2024-01-06T06:03:04;6.10;99.90
8400;DHT22;4237;47.030;15.396;2024-01-06T06:05:35;5.30;99.90
8400;DHT22;4237;47.030;15.396;2024-01-06T06:08:04;5.30;99.90
8400;DHT22;4237;47.030;15.396;2024-01-06T06:10:33;5.30;99.90
8400;DHT22;4237;47.030;15.396;2024-01-06T06:13:03;5.40;99.90
8400;DHT22;4237;47.030;15.396;2024-01-06T06:15:31;5.40;99.90
8400;DHT22;4237;47.030;15.396;2024-01-06T06:18:00;5.40;99.90
8400;DHT22;4237;47.030;15.396;2024-01-06T06:20:28;5.40;99.90
8400;DHT22;4237;47.030;15.396;2024-01-06T06:22:57;5.40;99.90
8400;DHT22;4237;47.030;15.396;2024-01-06T06:25:26;5.40;99.90
8400;DHT22;4237;47.030;15.396;2024-01-06T06:27:54;5.40;99.90
8400;DHT22;4237;47.030;15.396;2024-01-06T06:30:23;5.40;99.90
8400;DHT22;4237;47.030;15.396;2024-01-06T06:32:51;5.30;99.90
8400;DHT22;4237;47.030;15.396;2024-01-06T06:35:20;5.30;99.90
8400;DHT22;4237;47.030;15.396;2024-01-06T06:37:48;5.30;99.90
8400;DHT22;4237;47.030;15.396;2024-01-06T06:40:17;5.30;99.90
8400;DHT22;4237;47.030;15.396;2024-01-06T06:42:45;5.40;99.90
8400;DHT22;4237;47.030;15.396;2024-01-06T06:45:14;5.40;99.90
8400;DHT22;4237;47.030;15.396;2024-01-06T06:47:43;5.50;99.90
8400;DHT22;4237;47.030;15.396;2024-01-06T06:50:11;5.40;99.90
8400;DHT22;4237;47.030;15.396;2024-01-06T06:52:40;5.40;99.90
8400;DHT22;4237;47.030;15.396;2024-01-06T06:55:09;5.40;99.90
8400;DHT22;4237;47.030;15.396;2024-01-06T06:57:38;5.40;99.90
8400;DHT22;4237;47.030;15.396;2024-01-06T07:00:07;5.40;99.90
8400;DHT22;4237;47.030;15.396;2024-01-06T07:02:36;5.40;99.90
8400;DHT22;4237;47.030;15.396;2024-01-06T07:05:05;5.50;99.90
8400;DHT22;4237;47.030;15.396;2024-01-06T07:07:34;5.50;99.90
8400;DHT22;4237;47.030;15.396;2024-01-06T07:10:04;5.50;99.90
8400;DHT22;4237;47.030;15.396;2024-01-06T07:12:32;5.50;99.90
8400;DHT22;4237;47.030;15.396;2024-01-06T07:15:01;5.60;99.90
8400;DHT22;4237;47.030;15.396;2024-01-06T07:17:29;6.10;99.90
8400;DHT22;4237;47.030;15.396;2024-01-06T07:19:58;5.60;99.90
8400;DHT22;4237;47.030;15.396;2024-01-06T07:22:27;5.60;99.90
8400;DHT22;4237;47.030;15.396;2024-01-06T07:24:55;5.70;99.90
8400;DHT22;4237;47.030;15.396;2024-01-06T07:27:24;5.70;99.90
8400;DHT22;4237;47.030;15.396;2024-01-06T07:29:52;5.70;99.90
8400;DHT22;4237;47.030;15.396;2024-01-06T07:32:23;5.60;99.90
8400;DHT22;4237;47.030;15.396;2024-01-06T07:34:52;5.60;99.90
8400;DHT22;4237;47.030;15.396;2024-01-06T07:37:20;5.60;99.90
8400;DHT22;4237;47.030;15.396;2024-01-06T07:39:49;5.70;99.90
8400;DHT22;4237;47.030;15.396;2024-01-06T07:42:18;5.70;99.90
8400;DHT22;4237;47.030;15.396;2024-01-06T07:44:47;5.80;99.90
8400;DHT22;4237;47.030;15.396;2024-01-06T07:47:15;5.80;99.90
8400;DHT22;4237;47.030;15.396;2024-01-06T07:49:44;5.80;99.90
8400;DHT22;4237;47.030;15.396;2024-01-06T07:52:14;5.90;99.90
8400;DHT22;4237;47.030;15.396;2024-01-06T07:54:42;5.90;99.90
8400;DHT22;4237;47.030;15.396;2024-01-06T07:57:11;5.90;99.90
8400;DHT22;4237;47.030;15.396;2024-01-06T07:59:40;5.90;99.90
8400;DHT22;4237;47.030;15.396;2024-01-06T08:02:09;6.00;99.90
8400;DHT22;4237;47.030;15.396;2024-01-06T08:04:37;6.00;99.90
8400;DHT22;4237;47.030;15.396;2024-01-06T08:07:06;6.00;99.90
8400;DHT22;4237;47.030;15.396;2024-01-06T08:09:34;6.10;99.90
8400;DHT22;4237;47.030;15.396;2024-01-06T08:12:03;6.10;99.90
8400;DHT22;4237;47.030;15.396;2024-01-06T08:14:32;6.20;99.90
8400;DHT22;4237;47.030;15.396;2024-01-06T08:17:01;6.20;99.90
8400;DHT22;4237;47.030;15.396;2024-01-06T08:19:29;6.30;99.90
8400;DHT22;4237;47.030;15.396;2024-01-06T08:21:59;6.30;99.90
8400;DHT22;4237;47.030;15.396;2024-01-06T08:24:28;6.30;99.90
8400;DHT22;4237;47.030;15.396;2024-01-06T08:26:57;6.40;99.90
8400;DHT22;4237;47.030;15.396;2024-01-06T08:29:25;6.50;99.90
8400;DHT22;4237;47.030;15.396;2024-01-06T08:31:54;6.60;99.90
8400;DHT22;4237;47.030;15.396;2024-01-06T08:34:22;6.70;99.90
8400;DHT22;4237;47.030;15.396;2024-01-06T08:36:51;6.70;99.90
8400;DHT22;4237;47.030;15.396;2024-01-06T08:39:19;6.80;99.90
8400;DHT22;4237;47.030;15.396;2024-01-06T08:41:49;6.80;99.90
8400;DHT22;4237;47.030;15.396;2024-01-06T08:44:18;6.90;99.90
8400;DHT22;4237;47.030;15.396;2024-01-06T08:46:46;7.00;99.90
8400;DHT22;4237;47.030;15.396;2024-01-06T08:49:15;7.00;99.90
8400;DHT22;4237;47.030;15.396;2024-01-06T08:51:44;7.00;99.90
8400;DHT22;4237;47.030;15.396;2024-01-06T08:54:13;7.00;99.90
8400;DHT22;4237;47.030;15.396;2024-01-06T08:56:42;7.00;99.90
8400;DHT22;4237;47.030;15.396;2024-01-06T08:59:10;7.00;99.90
8400;DHT22;4237;47.030;15.396;2024-01-06T09:01:39;7.00;99.90
8400;DHT22;4237;47.030;15.396;2024-01-06T09:04:07;7.10;99.90
8400;DHT22;4237;47.030;15.396;2024-01-06T09:06:38;7.10;99.90
8400;DHT22;4237;47.030;15.396;2024-01-06T09:09:06;7.10;99.90
8400;DHT22;4237;47.030;15.396;2024-01-06T09:11:36;7.10;99.90
8400;DHT22;4237;47.030;15.396;2024-01-06T09:14:04;7.10;99.90
8400;DHT22;4237;47.030;15.396;2024-01-06T09:16:33;7.20;99.90
8400;DHT22;4237;47.030;15.396;2024-01-06T09:19:01;7.20;99.90
8400;DHT22;4237;47.030;15.396;2024-01-06T09:21:30;7.20;99.90
8400;DHT22;4237;47.030;15.396;2024-01-06T09:23:58;7.20;99.90
8400;DHT22;4237;47.030;15.396;2024-01-06T09:26:29;7.30;99.90
8400;DHT22;4237;47.030;15.396;2024-01-06T09:28:57;7.30;99.90
8400;DHT22;4237;47.030;15.396;2024-01-06T09:31:26;7.40;99.90
8400;DHT22;4237;47.030;15.396;2024-01-06T09:33:54;7.50;99.90
8400;DHT22;4237;47.030;15.396;2024-01-06T09:36:23;7.50;99.90
8400;DHT22;4237;47.030;15.396;2024-01-06T09:38:52;7.50;99.90
8400;DHT22;4237;47.030;15.396;2024-01-06T09:41:20;7.50;99.90
8400;DHT22;4237;47.030;15.396;2024-01-06T09:43:49;7.70;99.90
8400;DHT22;4237;47.030;15.396;2024-01-06T09:46:28;7.80;99.90
8400;DHT22;4237;47.030;15.396;2024-01-06T09:49:00;7.70;99.90
8400;DHT22;4237;47.030;15.396;2024-01-06T09:51:29;7.60;99.90
8400;DHT22;4237;47.030;15.396;2024-01-06T09:54:00;7.60;99.90
8400;DHT22;4237;47.030;15.396;2024-01-06T09:56:29;7.60;99.90
8400;DHT22;4237;47.030;15.396;2024-01-06T09:58:58;7.50;99.90
8400;DHT22;4237;47.030;15.396;2024-01-06T10:01:26;7.60;99.90
8400;DHT22;4237;47.030;15.396;2024-01-06T10:03:55;7.60;99.90
8400;DHT22;4237;47.030;15.396;2024-01-06T10:06:24;7.50;99.90
8400;DHT22;4237;47.030;15.396;2024-01-06T10:08:53;7.40;99.90
8400;DHT22;4237;47.030;15.396;2024-01-06T10:11:24;7.40;99.90
8400;DHT22;4237;47.030;15.396;2024-01-06T10:13:53;7.50;99.90
8400;DHT22;4237;47.030;15.396;2024-01-06T10:16:22;7.40;99.90
8400;DHT22;4237;47.030;15.396;2024-01-06T10:18:51;7.30;99.90
8400;DHT22;4237;47.030;15.396;2024-01-06T10:21:21;7.30;99.90
8400;DHT22;4237;47.030;15.396;2024-01-06T10:23:50;7.40;99.90
8400;DHT22;4237;47.030;15.396;2024-01-06T10:26:18;8.60;99.90
8400;DHT22;4237;47.030;15.396;2024-01-06T10:28:48;7.40;99.90
8400;DHT22;4237;47.030;15.396;2024-01-06T10:31:18;7.30;99.90
8400;DHT22;4237;47.030;15.396;2024-01-06T10:33:47;7.30;99.90
8400;DHT22;4237;47.030;15.396;2024-01-06T10:36:16;7.30;99.90
8400;DHT22;4237;47.030;15.396;2024-01-06T10:38:45;7.30;99.90
8400;DHT22;4237;47.030;15.396;2024-01-06T10:41:16;7.30;99.90
8400;DHT22;4237;47.030;15.396;2024-01-06T10:43:45;7.40;99.90
8400;DHT22;4237;47.030;15.396;2024-01-06T10:46:15;7.40;99.90
8400;DHT22;4237;47.030;15.396;2024-01-06T10:48:45;7.50;99.90
8400;DHT22;4237;47.030;15.396;2024-01-06T10:51:14;7.60;99.90
8400;DHT22;4237;47.030;15.396;2024-01-06T10:53:43;7.50;99.90
8400;DHT22;4237;47.030;15.396;2024-01-06T10:56:12;7.50;99.90
8400;DHT22;4237;47.030;15.396;2024-01-06T10:58:45;7.50;99.90
8400;DHT22;4237;47.030;15.396;2024-01-06T11:01:12;7.50;99.90
8400;DHT22;4237;47.030;15.396;2024-01-06T11:03:41;7.50;99.90
8400;DHT22;4237;47.030;15.396;2024-01-06T11:06:10;7.50;99.90
8400;DHT22;4237;47.030;15.396;2024-01-06T11:08:44;7.60;99.90
8400;DHT22;4237;47.030;15.396;2024-01-06T11:11:12;7.50;99.90
8400;DHT22;4237;47.030;15.396;2024-01-06T11:13:41;7.50;99.90
8400;DHT22;4237;47.030;15.396;2024-01-06T11:16:11;7.50;99.90
8400;DHT22;4237;47.030;15.396;2024-01-06T11:18:40;7.50;99.90
8400;DHT22;4237;47.030;15.396;2024-01-06T11:21:22;7.40;99.90
8400;DHT22;4237;47.030;15.396;2024-01-06T11:24:15;7.50;99.90
8400;DHT22;4237;47.030;15.396;2024-01-06T11:26:52;7.40;99.90
8400;DHT22;4237;47.030;15.396;2024-01-06T11:29:21;7.30;99.90
8400;DHT22;4237;47.030;15.396;2024-01-06T11:32:25;7.30;99.90
8400;DHT22;4237;47.030;15.396;2024-01-06T11:34:51;7.30;99.90
8400;DHT22;4237;47.030;15.396;2024-01-06T11:37:25;7.30;99.90
8400;DHT22;4237;47.030;15.396;2024-01-06T11:39:54;7.30;99.90
8400;DHT22;4237;47.030;15.396;2024-01-06T11:42:31;7.30;99.90
8400;DHT22;4237;47.030;15.396;2024-01-06T11:44:56;7.30;99.90
8400;DHT22;4237;47.030;15.396;2024-01-06T11:47:26;7.40;99.90
8400;DHT22;4237;47.030;15.396;2024-01-06T11:49:58;7.40;99.90
8400;DHT22;4237;47.030;15.396;2024-01-06T11:52:28;7.30;99.90
8400;DHT22;4237;47.030;15.396;2024-01-06T11:54:57;7.30;99.90
8400;DHT22;4237;47.030;15.396;2024-01-06T11:57:28;7.40;99.90
8400;DHT22;4237;47.030;15.396;2024-01-06T11:59:56;7.40;99.90
8400;DHT22;4237;47.030;15.396;2024-01-06T12:02:25;7.40;99.90
8400;DHT22;4237;47.030;15.396;2024-01-06T12:04:53;7.40;99.90
8400;DHT22;4237;47.030;15.396;2024-01-06T12:07:22;7.40;99.90
8400;DHT22;4237;47.030;15.396;2024-01-06T12:10:00;7.50;99.90
8400;DHT22;4237;47.030;15.396;2024-01-06T12:12:23;7.40;99.90
8400;DHT22;4237;47.030;15.396;2024-01-06T12:14:51;7.50;99.90
8400;DHT22;4237;47.030;15.396;2024-01-06T12:17:21;7.50;99.90
8400;DHT22;4237;47.030;15.396;2024-01-06T12:19:50;7.50;99.90
8400;DHT22;4237;47.030;15.396;2024-01-06T12:22:19;7.40;99.90
8400;DHT22;4237;47.030;15.396;2024-01-06T12:24:51;7.50;99.90
8400;DHT22;4237;47.030;15.396;2024-01-06T12:27:19;7.40;99.90
8400;DHT22;4237;47.030;15.396;2024-01-06T12:29:49;7.30;99.90
8400;DHT22;4237;47.030;15.396;2024-01-06T12:32:18;7.30;99.90
8400;DHT22;4237;47.030;15.396;2024-01-06T12:34:46;7.30;99.90
8400;DHT22;4237;47.030;15.396;2024-01-06T12:37:15;7.20;99.90
8400;DHT22;4237;47.030;15.396;2024-01-06T12:39:46;7.20;99.90
8400;DHT22;4237;47.030;15.396;2024-01-06T12:42:16;7.20;99.90
8400;DHT22;4237;47.030;15.396;2024-01-06T12:44:44;7.20;99.90
8400;DHT22;4237;47.030;15.396;2024-01-06T12:47:13;7.10;99.90
8400;DHT22;4237;47.030;15.396;2024-01-06T12:49:42;7.10;99.90
8400;DHT22;4237;47.030;15.396;2024-01-06T12:52:11;7.10;99.90
8400;DHT22;4237;47.030;15.396;2024-01-06T12:54:40;7.20;99.90
8400;DHT22;4237;47.030;15.396;2024-01-06T12:57:08;7.20;99.90
8400;DHT22;4237;47.030;15.396;2024-01-06T12:59:37;7.30;99.90
8400;DHT22;4237;47.030;15.396;2024-01-06T13:02:06;7.30;99.90
8400;DHT22;4237;47.030;15.396;2024-01-06T13:04:34;7.40;99.90
8400;DHT22;4237;47.030;15.396;2024-01-06T13:07:03;7.50;99.90
8400;DHT22;4237;47.030;15.396;2024-01-06T13:09:31;7.50;99.90
8400;DHT22;4237;47.030;15.396;2024-01-06T13:12:00;7.60;99.90
8400;DHT22;4237;47.030;15.396;2024-01-06T13:14:29;7.60;99.90
8400;DHT22;4237;47.030;15.396;2024-01-06T13:16:59;7.50;99.90
8400;DHT22;4237;47.030;15.396;2024-01-06T13:19:27;7.50;99.90
8400;DHT22;4237;47.030;15.396;2024-01-06T13:21:56;7.40;99.90
8400;DHT22;4237;47.030;15.396;2024-01-06T13:24:24;7.40;99.90
8400;DHT22;4237;47.030;15.396;2024-01-06T13:26:53;7.50;99.90
8400;DHT22;4237;47.030;15.396;2024-01-06T13:29:21;7.40;99.90
8400;DHT22;4237;47.030;15.396;2024-01-06T13:31:50;7.50;99.90
8400;DHT22;4237;47.030;15.396;2024-01-06T13:34:20;7.30;99.90
8400;DHT22;4237;47.030;15.396;2024-01-06T13:36:49;7.10;99.90
8400;DHT22;4237;47.030;15.396;2024-01-06T13:39:17;7.40;99.90
8400;DHT22;4237;47.030;15.396;2024-01-06T13:41:48;7.20;99.90
8400;DHT22;4237;47.030;15.396;2024-01-06T13:44:16;7.20;99.90
8400;DHT22;4237;47.030;15.396;2024-01-06T13:46:45;7.10;99.90
8400;DHT22;4237;47.030;15.396;2024-01-06T13:49:15;7.00;99.90
8400;DHT22;4237;47.030;15.396;2024-01-06T13:51:44;7.00;99.90
8400;DHT22;4237;47.030;15.396;2024-01-06T13:54:12;7.00;99.90
8400;DHT22;4237;47.030;15.396;2024-01-06T13:56:41;7.00;99.90
8400;DHT22;4237;47.030;15.396;2024-01-06T13:59:09;6.90;99.90
8400;DHT22;4237;47.030;15.396;2024-01-06T14:01:38;6.90;99.90
8400;DHT22;4237;47.030;15.396;2024-01-06T14:04:07;6.90;99.90
8400;DHT22;4237;47.030;15.396;2024-01-06T14:06:36;7.00;99.90
8400;DHT22;4237;47.030;15.396;2024-01-06T14:09:06;6.80;99.90
8400;DHT22;4237;47.030;15.396;2024-01-06T14:11:34;6.80;99.90
8400;DHT22;4237;47.030;15.396;2024-01-06T14:14:03;6.80;99.90
8400;DHT22;4237;47.030;15.396;2024-01-06T14:16:32;6.80;99.90
8400;DHT22;4237;47.030;15.396;2024-01-06T14:19:01;6.90;99.90
8400;DHT22;4237;47.030;15.396;2024-01-06T14:21:30;6.80;99.90
8400;DHT22;4237;47.030;15.396;2024-01-06T14:23:58;6.70;99.90
8400;DHT22;4237;47.030;15.396;2024-01-06T14:26:27;6.60;99.90
8400;DHT22;4237;47.030;15.396;2024-01-06T14:28:55;6.60;99.90
8400;DHT22;4237;47.030;15.396;2024-01-06T14:31:25;6.50;99.90
8400;DHT22;4237;47.030;15.396;2024-01-06T14:33:57;6.40;99.90
8400;DHT22;4237;47.030;15.396;2024-01-06T14:36:25;6.40;99.90
8400;DHT22;4237;47.030;15.396;2024-01-06T14:38:54;6.30;99.90
8400;DHT22;4237;47.030;15.396;2024-01-06T14:41:22;6.30;99.90
8400;DHT22;4237;47.030;15.396;2024-01-06T14:43:51;6.40;99.90
8400;DHT22;4237;47.030;15.396;2024-01-06T14:46:19;6.40;99.90
8400;DHT22;4237;47.030;15.396;2024-01-06T14:48:48;6.40;99.90
8400;DHT22;4237;47.030;15.396;2024-01-06T14:51:17;6.30;99.90
8400;DHT22;4237;47.030;15.396;2024-01-06T14:53:45;6.90;99.90
8400;DHT22;4237;47.030;15.396;2024-01-06T14:56:14;6.40;99.90
8400;DHT22;4237;47.030;15.396;2024-01-06T14:58:42;6.30;99.90
8400;DHT22;4237;47.030;15.396;2024-01-06T15:01:11;6.20;99.90
8400;DHT22;4237;47.030;15.396;2024-01-06T15:03:40;6.30;99.90
8400;DHT22;4237;47.030;15.396;2024-01-06T15:06:09;6.20;99.90
8400;DHT22;4237;47.030;15.396;2024-01-06T15:08:37;6.20;99.90
8400;DHT22;4237;47.030;15.396;2024-01-06T15:11:06;6.10;99.90
8400;DHT22;4237;47.030;15.396;2024-01-06T15:13:35;6.10;99.90
8400;DHT22;4237;47.030;15.396;2024-01-06T15:16:04;6.00;99.90
8400;DHT22;4237;47.030;15.396;2024-01-06T15:18:34;6.10;99.90
8400;DHT22;4237;47.030;15.396;2024-01-06T15:21:03;6.10;99.90
8400;DHT22;4237;47.030;15.396;2024-01-06T15:23:32;6.10;99.90
8400;DHT22;4237;47.030;15.396;2024-01-06T15:26:00;6.10;99.90
8400;DHT22;4237;47.030;15.396;2024-01-06T15:28:31;6.00;99.90
8400;DHT22;4237;47.030;15.396;2024-01-06T15:30:59;6.10;99.90
8400;DHT22;4237;47.030;15.396;2024-01-06T15:33:28;6.00;99.90
8400;DHT22;4237;47.030;15.396;2024-01-06T15:35:56;6.00;99.90
8400;DHT22;4237;47.030;15.396;2024-01-06T15:38:25;5.90;99.90
8400;DHT22;4237;47.030;15.396;2024-01-06T15:40:54;5.90;99.90
8400;DHT22;4237;47.030;15.396;2024-01-06T15:43:23;5.90;99.90
8400;DHT22;4237;47.030;15.396;2024-01-06T15:45:52;5.00;99.90
8400;DHT22;4237;47.030;15.396;2024-01-06T15:48:22;5.90;99.90
8400;DHT22;4237;47.030;15.396;2024-01-06T15:50:51;6.00;99.90
8400;DHT22;4237;47.030;15.396;2024-01-06T15:53:19;5.80;99.90
8400;DHT22;4237;47.030;15.396;2024-01-06T15:55:48;5.90;99.90
8400;DHT22;4237;47.030;15.396;2024-01-06T15:58:16;5.90;99.90
8400;DHT22;4237;47.030;15.396;2024-01-06T16:00:46;5.90;99.90
8400;DHT22;4237;47.030;15.396;2024-01-06T16:03:14;5.90;99.90
8400;DHT22;4237;47.030;15.396;2024-01-06T16:05:43;5.80;99.90
8400;DHT22;4237;47.030;15.396;2024-01-06T16:08:12;6.50;99.90
8400;DHT22;4237;47.030;15.396;2024-01-06T16:10:41;5.90;99.90
8400;DHT22;4237;47.030;15.396;2024-01-06T16:13:09;5.90;99.90